createdAt,value
2024-02-04T00:02:27.602Z,108.68
2024-02-04T00:04:56.543Z,116.30
2024-02-04T00:07:24.749Z,103.65
2024-02-04T00:09:52.610Z,107.25
2024-02-04T00:12:20.357Z,116.55
2024-02-04T00:14:50.799Z,121.90
2024-02-04T00:17:18.898Z,124.10
2024-02-04T00:19:47.056Z,123.25
2024-02-04T00:22:19.707Z,120.57
2024-02-04T00:24:47.380Z,115.15
2024-02-04T00:27:15.674Z,120.28
2024-02-04T00:29:43.296Z,114.40
2024-02-04T00:32:10.898Z,126.72
2024-02-04T00:34:38.728Z,116.05
2024-02-04T00:37:07.233Z,120.80
2024-02-04T00:39:35.131Z,108.47
2024-02-04T00:42:02.753Z,105.13
2024-02-04T00:44:30.404Z,120.85
2024-02-04T00:46:58.037Z,121.65
2024-02-04T00:49:27.723Z,134.30
2024-02-04T00:51:55.810Z,130.60
2024-02-04T00:54:23.478Z,120.30
2024-02-04T00:56:51.284Z,126.03
2024-02-04T00:59:18.904Z,128.23
2024-02-04T01:01:47.032Z,126.72
2024-02-04T01:04:14.789Z,118.20
2024-02-04T01:06:51.415Z,113.93
2024-02-04T01:09:29.019Z,123.07
2024-02-04T01:11:56.745Z,106.85
2024-02-04T01:14:24.425Z,126.07
2024-02-04T01:16:52.024Z,120.68
2024-02-04T01:19:19.819Z,115.18
2024-02-04T01:21:48.054Z,116.72
2024-02-04T01:24:15.770Z,121.95
2024-02-04T01:26:43.976Z,114.00
2024-02-04T01:29:12.069Z,122.10
2024-02-04T01:31:39.674Z,112.55
2024-02-04T01:34:07.397Z,127.55
2024-02-04T01:36:35.106Z,115.82
2024-02-04T01:39:03.616Z,120.28
2024-02-04T01:41:31.883Z,121.78
2024-02-04T01:43:59.532Z,117.10
2024-02-04T01:46:27.294Z,122.75
2024-02-04T01:48:55.548Z,124.03
2024-02-04T01:51:24.153Z,121.18
2024-02-04T01:53:54.843Z,125.07
2024-02-04T01:56:23.047Z,121.88
2024-02-04T01:58:50.973Z,127.93
2024-02-04T02:01:18.990Z,119.97
2024-02-04T02:03:47.440Z,136.75
2024-02-04T02:06:16.477Z,139.32
2024-02-04T02:08:44.845Z,133.75
2024-02-04T02:11:29.007Z,137.52
2024-02-04T02:14:04.212Z,134.00
2024-02-04T02:16:34.244Z,130.60
2024-02-04T02:19:48.800Z,133.95
2024-02-04T02:22:27.884Z,127.70
2024-02-04T02:24:58.582Z,129.55
2024-02-04T02:27:26.650Z,133.68
2024-02-04T02:29:54.437Z,126.35
2024-02-04T02:32:22.354Z,129.82
2024-02-04T02:34:50.647Z,128.07
2024-02-04T02:37:37.523Z,131.43
2024-02-04T02:40:08.341Z,121.40
2024-02-04T02:42:38.653Z,120.60
2024-02-04T02:45:08.145Z,126.30
2024-02-04T02:47:37.998Z,114.50
2024-02-04T02:50:07.438Z,118.80
2024-02-04T02:52:35.190Z,106.80
2024-02-04T02:55:02.838Z,119.63
2024-02-04T02:57:30.529Z,126.35
2024-02-04T02:59:58.387Z,119.90
2024-02-04T03:02:26.294Z,113.30
2024-02-04T03:04:53.996Z,115.38
2024-02-04T03:07:22.191Z,120.30
2024-02-04T03:09:50.147Z,120.45
2024-02-04T03:12:18.263Z,116.88
2024-02-04T03:14:45.852Z,120.07
2024-02-04T03:17:14.571Z,120.40
2024-02-04T03:19:42.193Z,116.45
2024-02-04T03:22:09.805Z,120.53
2024-02-04T03:24:38.200Z,119.65
2024-02-04T03:27:05.956Z,121.90
2024-02-04T03:29:33.693Z,119.53
2024-02-04T03:32:01.493Z,120.53
2024-02-04T03:34:29.313Z,128.80
2024-02-04T03:36:57.293Z,122.22
2024-02-04T03:39:25.048Z,118.80
2024-02-04T03:41:52.673Z,132.18
2024-02-04T03:44:20.807Z,120.82
2024-02-04T03:46:50.056Z,120.47
2024-02-04T03:49:19.527Z,125.90
2024-02-04T03:51:48.788Z,128.45
2024-02-04T03:54:16.516Z,131.68
2024-02-04T03:56:44.167Z,126.40
2024-02-04T03:59:12.279Z,128.60
2024-02-04T04:01:40.002Z,123.82
2024-02-04T04:04:08.310Z,121.57
2024-02-04T04:06:36.033Z,124.45
2024-02-04T04:09:03.880Z,121.82
2024-02-04T04:11:31.470Z,132.88
2024-02-04T04:13:59.217Z,123.38
2024-02-04T04:16:26.785Z,121.68
2024-02-04T04:18:54.530Z,121.05
2024-02-04T04:21:22.289Z,126.30
2024-02-04T04:23:49.988Z,124.22
2024-02-04T04:26:17.644Z,121.57
2024-02-04T04:28:46.108Z,118.57
2024-02-04T04:31:13.804Z,120.75
2024-02-04T04:33:42.145Z,119.55
2024-02-04T04:36:09.802Z,116.07
2024-02-04T04:38:37.435Z,120.47
2024-02-04T04:41:05.705Z,117.70
2024-02-04T04:43:34.483Z,123.05
2024-02-04T04:46:02.944Z,127.53
2024-02-04T04:48:31.339Z,121.00
2024-02-04T04:51:00.284Z,123.88
2024-02-04T04:53:27.989Z,126.72
2024-02-04T04:55:55.598Z,121.55
2024-02-04T04:58:23.283Z,115.43
2024-02-04T05:00:51.095Z,111.68
2024-02-04T05:03:18.883Z,111.90
2024-02-04T05:05:46.574Z,117.13
2024-02-04T05:08:16.698Z,119.90
2024-02-04T05:10:44.464Z,112.00
2024-02-04T05:13:13.100Z,125.70
2024-02-04T05:15:40.677Z,120.75
2024-02-04T05:18:08.349Z,120.78
2024-02-04T05:20:36.408Z,122.00
2024-02-04T05:23:04.152Z,133.77
2024-02-04T05:25:32.556Z,122.10
2024-02-04T05:28:00.175Z,126.85
2024-02-04T05:30:27.896Z,138.10
2024-02-04T05:32:56.665Z,135.05
2024-02-04T05:35:25.005Z,122.80
2024-02-04T05:37:52.624Z,117.10
2024-02-04T05:40:21.835Z,135.90
2024-02-04T05:42:50.159Z,123.75
2024-02-04T05:45:17.788Z,118.20
2024-02-04T05:47:45.956Z,121.55
2024-02-04T05:50:14.055Z,133.45
2024-02-04T05:52:41.734Z,127.03
2024-02-04T05:55:11.831Z,125.13
2024-02-04T05:57:39.463Z,127.93
2024-02-04T06:00:09.313Z,118.57
2024-02-04T06:02:37.917Z,119.32
2024-02-04T06:05:05.899Z,128.43
2024-02-04T06:07:33.431Z,118.13
2024-02-04T06:10:02.478Z,129.65
2024-02-04T06:12:31.024Z,123.55
2024-02-04T06:14:58.710Z,125.75
2024-02-04T06:17:26.371Z,128.25
2024-02-04T06:19:54.993Z,127.20
2024-02-04T06:22:22.695Z,124.97
2024-02-04T06:24:51.412Z,120.22
2024-02-04T06:27:19.053Z,120.13
2024-02-04T06:29:46.587Z,116.65
2024-02-04T06:32:14.594Z,121.47
2024-02-04T06:34:42.298Z,120.63
2024-02-04T06:37:09.970Z,127.57
2024-02-04T06:39:37.614Z,126.28
2024-02-04T06:42:05.639Z,125.15
2024-02-04T06:44:34.383Z,115.57
2024-02-04T06:47:03.373Z,129.60
2024-02-04T06:49:31.069Z,116.70
2024-02-04T06:51:59.009Z,120.95
2024-02-04T06:54:26.828Z,116.43
2024-02-04T06:56:55.280Z,127.43
2024-02-04T06:59:23.030Z,134.50
2024-02-04T07:01:51.350Z,124.47
2024-02-04T07:04:19.783Z,116.80
2024-02-04T07:06:47.924Z,121.57
2024-02-04T07:09:17.519Z,127.43
2024-02-04T07:11:45.730Z,125.88
2024-02-04T07:14:13.487Z,135.10
2024-02-04T07:16:41.246Z,123.53
2024-02-04T07:19:08.892Z,119.47
2024-02-04T07:21:37.002Z,123.22
2024-02-04T07:24:04.932Z,124.78
2024-02-04T07:26:32.570Z,122.15
2024-02-04T07:29:00.214Z,125.80
2024-02-04T07:31:27.826Z,120.88
2024-02-04T07:33:56.953Z,129.85
2024-02-04T07:36:24.632Z,124.53
2024-02-04T07:38:55.369Z,132.98
2024-02-04T07:41:24.272Z,133.48
2024-02-04T07:43:51.917Z,130.32
2024-02-04T07:46:19.656Z,135.20
2024-02-04T07:48:47.557Z,124.88
2024-02-04T07:51:15.341Z,130.15
2024-02-04T07:53:42.930Z,129.20
2024-02-04T07:56:12.066Z,121.18
2024-02-04T07:58:40.202Z,134.15
2024-02-04T08:01:08.376Z,135.75
2024-02-04T08:03:36.120Z,131.65
2024-02-04T08:06:03.938Z,134.32
2024-02-04T08:08:31.544Z,128.77
2024-02-04T08:11:01.454Z,129.57
2024-02-04T08:13:29.922Z,131.15
2024-02-04T08:15:57.939Z,135.20
2024-02-04T08:18:25.634Z,121.88
2024-02-04T08:20:54.251Z,130.23
2024-02-04T08:23:22.339Z,133.77
2024-02-04T08:25:51.249Z,131.38
2024-02-04T08:28:18.966Z,131.90
2024-02-04T08:30:46.650Z,120.07
2024-02-04T08:33:14.963Z,126.68
2024-02-04T08:35:42.871Z,128.98
2024-02-04T08:38:11.434Z,122.80
2024-02-04T08:40:39.089Z,133.27
2024-02-04T08:43:06.883Z,120.32
2024-02-04T08:45:34.662Z,126.32
2024-02-04T08:48:02.359Z,134.90
2024-02-04T08:50:30.748Z,119.53
2024-02-04T08:52:58.813Z,128.20
2024-02-04T08:55:26.887Z,125.07
2024-02-04T08:57:54.679Z,121.93
2024-02-04T09:00:22.893Z,123.80
2024-02-04T09:02:50.696Z,128.80
2024-02-04T09:05:19.396Z,127.10
2024-02-04T09:07:47.430Z,125.40
2024-02-04T09:10:15.384Z,124.00
2024-02-04T09:12:43.450Z,117.93
2024-02-04T09:15:11.388Z,120.53
2024-02-04T09:17:39.151Z,120.20
2024-02-04T09:20:09.201Z,116.03
2024-02-04T09:22:37.817Z,109.93
2024-02-04T09:25:06.506Z,115.60
2024-02-04T09:27:34.726Z,107.80
2024-02-04T09:30:02.605Z,111.57
2024-02-04T09:32:30.640Z,99.55
2024-02-04T09:34:58.608Z,104.00
2024-02-04T09:37:26.813Z,97.18
2024-02-04T09:39:55.446Z,91.35
2024-02-04T09:42:24.451Z,84.50
2024-02-04T09:44:52.866Z,97.57
2024-02-04T09:47:22.031Z,92.47
2024-02-04T09:49:50.377Z,93.68
2024-02-04T09:52:23.518Z,93.97
2024-02-04T09:55:02.099Z,94.43
2024-02-04T09:57:35.384Z,97.20
2024-02-04T10:00:06.836Z,90.72
2024-02-04T10:02:40.738Z,95.25
2024-02-04T10:05:10.558Z,100.20
2024-02-04T10:07:38.993Z,108.30
2024-02-04T10:10:08.281Z,112.00
2024-02-04T10:12:39.173Z,104.65
2024-02-04T10:15:08.938Z,111.20
2024-02-04T10:17:36.603Z,103.18
2024-02-04T10:20:04.743Z,100.20
2024-02-04T10:22:32.729Z,109.32
2024-02-04T10:25:08.541Z,113.05
2024-02-04T10:27:37.942Z,107.25
2024-02-04T10:30:07.889Z,121.45
2024-02-04T10:32:36.086Z,123.93
2024-02-04T10:35:04.309Z,123.68
2024-02-04T10:37:32.150Z,126.43
2024-02-04T10:40:00.107Z,124.45
2024-02-04T10:42:30.217Z,129.10
2024-02-04T10:45:00.220Z,127.93
2024-02-04T10:47:34.672Z,124.35
2024-02-04T10:50:05.239Z,117.07
2024-02-04T10:52:38.973Z,123.55
2024-02-04T10:55:09.950Z,127.80
2024-02-04T10:57:39.775Z,135.88
2024-02-04T11:00:13.022Z,130.50
2024-02-04T11:02:44.248Z,136.10
2024-02-04T11:05:12.350Z,138.40
2024-02-04T11:07:40.435Z,143.63
2024-02-04T11:10:09.031Z,148.32
2024-02-04T11:12:39.422Z,145.40
2024-02-04T11:15:10.259Z,142.20
2024-02-04T11:17:59.308Z,150.00
2024-02-04T11:20:30.976Z,142.73
2024-02-04T11:22:59.777Z,149.23
2024-02-04T11:25:44.555Z,145.73
2024-02-04T11:28:13.935Z,144.02
2024-02-04T11:30:45.057Z,150.45
2024-02-04T11:33:15.407Z,146.88
2024-02-04T11:35:43.721Z,155.23
2024-02-04T11:38:12.458Z,151.77
2024-02-04T11:40:41.126Z,136.32
2024-02-04T11:43:12.702Z,140.60
2024-02-04T11:45:44.076Z,150.10
2024-02-04T11:48:12.831Z,142.27
2024-02-04T11:50:43.931Z,141.30
2024-02-04T11:53:13.732Z,149.13
2024-02-04T11:55:45.377Z,145.80
2024-02-04T11:58:14.680Z,145.10
2024-02-04T12:00:47.131Z,145.43
2024-02-04T12:03:14.966Z,140.80
2024-02-04T12:05:44.183Z,173.50
2024-02-04T12:08:13.336Z,135.60
2024-02-04T12:10:44.884Z,198.38
2024-02-04T12:13:14.014Z,130.95
2024-02-04T12:15:42.718Z,134.52
2024-02-04T12:18:11.953Z,136.55
2024-02-04T12:20:40.741Z,138.48
2024-02-04T12:23:09.195Z,137.73
2024-02-04T12:25:42.422Z,135.82
2024-02-04T12:28:12.805Z,134.23
2024-02-04T12:30:40.591Z,128.50
2024-02-04T12:33:08.531Z,135.93
2024-02-04T12:35:36.838Z,132.52
2024-02-04T12:38:11.922Z,134.02
2024-02-04T12:40:39.513Z,133.85
2024-02-04T12:43:08.061Z,128.82
2024-02-04T12:45:35.872Z,132.43
2024-02-04T12:48:04.237Z,136.93
2024-02-04T12:50:34.628Z,136.32
2024-02-04T12:53:14.226Z,141.85
2024-02-04T12:55:44.148Z,135.48
2024-02-04T12:58:15.809Z,151.52
2024-02-04T13:00:44.071Z,146.57
2024-02-04T13:03:12.442Z,130.93
2024-02-04T13:05:40.380Z,138.13
2024-02-04T13:08:09.201Z,141.40
2024-02-04T13:10:38.015Z,138.13
2024-02-04T13:13:09.728Z,140.77
2024-02-04T13:15:42.636Z,145.30
2024-02-04T13:18:12.676Z,136.40
2024-02-04T13:20:41.889Z,151.75
2024-02-04T13:23:11.311Z,139.35
2024-02-04T13:25:39.797Z,140.15
2024-02-04T13:28:08.659Z,142.30
2024-02-04T13:30:37.078Z,146.13
2024-02-04T13:33:06.981Z,140.05
2024-02-04T13:35:37.588Z,146.00
2024-02-04T13:38:06.651Z,152.30
2024-02-04T13:40:34.705Z,145.20
2024-02-04T13:43:02.827Z,138.27
2024-02-04T13:45:30.498Z,150.07
2024-02-04T13:47:58.227Z,160.70
2024-02-04T13:50:26.030Z,147.90
2024-02-04T13:52:53.628Z,144.85
2024-02-04T13:55:22.285Z,144.07
2024-02-04T13:57:50.902Z,146.85
2024-02-04T14:00:18.990Z,154.02
2024-02-04T14:02:47.009Z,158.18
2024-02-04T14:05:14.757Z,156.93
2024-02-04T14:07:42.916Z,157.48
2024-02-04T14:10:13.014Z,161.10
2024-02-04T14:12:46.735Z,161.07
2024-02-04T14:17:43.364Z,158.38
2024-02-04T14:20:11.411Z,160.30
2024-02-04T14:22:39.019Z,158.23
2024-02-04T14:25:07.488Z,151.30
2024-02-04T14:27:35.082Z,162.15
2024-02-04T14:30:02.909Z,164.75
2024-02-04T14:32:32.468Z,166.52
2024-02-04T14:35:00.979Z,160.82
2024-02-04T14:37:29.303Z,162.00
2024-02-04T14:39:57.143Z,165.73
2024-02-04T14:42:25.214Z,165.80
2024-02-04T14:44:52.873Z,158.50
2024-02-04T14:47:20.940Z,169.88
2024-02-04T14:49:50.150Z,168.68
2024-02-04T14:52:19.158Z,165.15
2024-02-04T14:54:46.993Z,167.73
2024-02-04T14:57:15.174Z,162.50
2024-02-04T14:59:44.304Z,173.45
2024-02-04T15:02:12.112Z,173.07
2024-02-04T15:04:41.090Z,174.07
2024-02-04T15:07:09.569Z,162.02
2024-02-04T15:09:37.796Z,176.13
2024-02-04T15:12:06.247Z,168.45
2024-02-04T15:14:34.165Z,171.10
2024-02-04T15:17:03.293Z,176.93
2024-02-04T15:19:37.347Z,181.40
2024-02-04T15:22:06.152Z,188.60
2024-02-04T15:24:34.927Z,174.25
2024-02-04T15:27:06.301Z,181.00
2024-02-04T15:29:36.973Z,182.38
2024-02-04T15:32:08.043Z,167.13
2024-02-04T15:34:37.246Z,172.77
2024-02-04T15:37:05.377Z,182.55
2024-02-04T15:39:34.895Z,186.27
2024-02-04T15:42:02.545Z,190.27
2024-02-04T15:44:30.113Z,190.18
2024-02-04T15:47:00.152Z,187.40
2024-02-04T15:49:29.468Z,181.18
2024-02-04T15:51:57.779Z,179.55
2024-02-04T15:54:25.806Z,189.57
2024-02-04T15:57:04.023Z,183.07
2024-02-04T15:59:51.554Z,192.40
2024-02-04T16:02:19.532Z,194.25
2024-02-04T16:04:47.241Z,190.52
2024-02-04T16:07:16.399Z,196.55
2024-02-04T16:09:49.231Z,196.52
2024-02-04T16:12:22.006Z,195.43
2024-02-04T16:14:51.760Z,195.60
2024-02-04T16:17:21.475Z,191.77
2024-02-04T16:19:51.090Z,193.32
2024-02-04T16:22:20.651Z,199.70
2024-02-04T16:24:48.492Z,202.07
2024-02-04T16:27:16.281Z,196.35
2024-02-04T16:29:43.896Z,203.07
2024-02-04T16:32:15.530Z,209.35
2024-02-04T16:34:43.540Z,222.52
2024-02-04T16:37:11.819Z,219.20
2024-02-04T16:39:40.181Z,213.00
2024-02-04T16:42:10.033Z,204.18
2024-02-04T16:44:37.866Z,206.25
2024-02-04T16:47:06.149Z,215.77
2024-02-04T16:49:34.313Z,210.65
2024-02-04T16:52:02.880Z,213.70
2024-02-04T16:54:30.757Z,210.95
2024-02-04T16:56:59.354Z,207.05
2024-02-04T16:59:27.401Z,212.68
2024-02-04T17:01:55.699Z,211.32
2024-02-04T17:04:24.138Z,217.95
2024-02-04T17:06:52.265Z,215.18
2024-02-04T17:09:20.729Z,199.32
2024-02-04T17:11:48.820Z,210.13
2024-02-04T17:14:18.529Z,211.40
2024-02-04T17:17:12.604Z,200.57
2024-02-04T17:19:45.268Z,216.20
2024-02-04T17:22:19.357Z,228.63
2024-02-04T17:24:51.661Z,216.48
2024-02-04T17:27:20.166Z,224.10
2024-02-04T17:29:53.752Z,227.25
2024-02-04T17:32:26.796Z,222.77
2024-02-04T17:34:55.537Z,216.02
2024-02-04T17:37:23.415Z,214.07
2024-02-04T17:39:51.282Z,222.55
2024-02-04T17:42:19.200Z,221.27
2024-02-04T17:44:47.921Z,212.85
2024-02-04T17:47:16.360Z,206.10
2024-02-04T17:49:44.359Z,214.57
2024-02-04T17:52:12.050Z,216.00
2024-02-04T17:54:40.635Z,214.95
2024-02-04T17:57:10.339Z,226.13
2024-02-04T17:59:38.021Z,235.35
2024-02-04T18:02:06.434Z,223.43
2024-02-04T18:04:35.547Z,219.13
2024-02-04T18:07:04.455Z,226.30
2024-02-04T18:09:34.809Z,226.43
2024-02-04T18:12:02.460Z,246.68
2024-02-04T18:14:30.457Z,238.82
2024-02-04T18:16:58.162Z,237.93
2024-02-04T18:19:25.966Z,235.23
2024-02-04T18:21:53.752Z,225.80
2024-02-04T18:24:21.814Z,231.32
2024-02-04T18:26:49.890Z,229.95
2024-02-04T18:29:18.033Z,234.57
2024-02-04T18:31:49.660Z,228.82
2024-02-04T18:34:17.342Z,228.15
2024-02-04T18:36:45.180Z,221.05
2024-02-04T18:39:14.779Z,222.50
2024-02-04T18:41:46.645Z,223.90
2024-02-04T18:44:16.468Z,233.43
2024-02-04T18:46:44.670Z,222.45
2024-02-04T18:49:12.740Z,248.52
2024-02-04T18:51:47.471Z,232.13
2024-02-04T18:54:15.387Z,236.35
2024-02-04T18:56:48.204Z,239.23
2024-02-04T18:59:15.831Z,252.07
2024-02-04T19:01:45.377Z,250.18
2024-02-04T19:04:13.200Z,247.02
2024-02-04T19:06:49.219Z,251.18
2024-02-04T19:09:17.307Z,249.90
2024-02-04T19:11:45.596Z,246.10
2024-02-04T19:14:13.962Z,248.73
2024-02-04T19:16:42.184Z,245.82
2024-02-04T19:19:11.799Z,251.82
2024-02-04T19:21:47.204Z,243.35
2024-02-04T19:24:19.612Z,253.55
2024-02-04T19:26:49.210Z,238.40
2024-02-04T19:29:18.025Z,234.95
2024-02-04T19:31:46.676Z,233.43
2024-02-04T19:34:14.516Z,229.23
2024-02-04T19:36:44.661Z,236.23
2024-02-04T19:39:14.529Z,216.18
2024-02-04T19:41:44.682Z,228.68
2024-02-04T19:44:13.265Z,219.30
2024-02-04T19:46:40.909Z,230.05
2024-02-04T19:49:08.678Z,229.13
2024-02-04T19:51:36.889Z,216.05
2024-02-04T19:54:04.661Z,239.88
2024-02-04T19:56:32.923Z,234.88
2024-02-04T19:59:04.894Z,223.90
2024-02-04T20:01:36.131Z,232.23
2024-02-04T20:04:05.180Z,223.65
2024-02-04T20:06:33.446Z,228.80
2024-02-04T20:09:01.101Z,231.07
2024-02-04T20:11:33.396Z,232.77
2024-02-04T20:14:05.069Z,233.32
2024-02-04T20:16:32.977Z,230.98
2024-02-04T20:19:03.893Z,236.65
2024-02-04T20:21:33.921Z,228.20
2024-02-04T20:24:02.344Z,239.73
2024-02-04T20:26:30.670Z,240.35
2024-02-04T20:28:58.330Z,228.88
2024-02-04T20:31:26.146Z,230.85
2024-02-04T20:33:54.707Z,226.85
2024-02-04T20:36:23.333Z,241.57
2024-02-04T20:38:51.900Z,228.45
2024-02-04T20:41:19.729Z,234.32
2024-02-04T20:43:49.214Z,243.00
2024-02-04T20:46:16.868Z,235.07
2024-02-04T20:48:46.285Z,228.57
2024-02-04T20:51:14.182Z,233.35
2024-02-04T20:53:42.855Z,244.45
2024-02-04T20:56:10.785Z,242.80
2024-02-04T20:58:39.708Z,234.40
2024-02-04T21:01:08.135Z,236.90
2024-02-04T21:03:36.959Z,232.32
2024-02-04T21:06:05.476Z,242.73
2024-02-04T21:08:33.119Z,231.80
2024-02-04T21:11:01.988Z,248.45
2024-02-04T21:13:29.945Z,235.02
2024-02-04T21:15:57.583Z,236.85
2024-02-04T21:18:25.522Z,240.10
2024-02-04T21:20:53.258Z,249.50
2024-02-04T21:23:21.414Z,242.07
2024-02-04T21:25:50.890Z,236.35
2024-02-04T21:28:19.016Z,232.82
2024-02-04T21:30:46.677Z,232.50
2024-02-04T21:33:14.401Z,234.63
2024-02-04T21:35:42.565Z,232.32
2024-02-04T21:38:11.159Z,222.00
2024-02-04T21:40:46.692Z,223.73
2024-02-04T21:43:14.547Z,232.63
2024-02-04T21:45:42.273Z,243.13
2024-02-04T21:48:10.527Z,240.70
2024-02-04T21:50:41.650Z,218.15
2024-02-04T21:53:11.216Z,237.90
2024-02-04T21:55:38.899Z,233.85
2024-02-04T21:58:06.555Z,232.88
2024-02-04T22:00:35.954Z,244.38
2024-02-04T22:03:05.639Z,233.85
2024-02-04T22:05:35.649Z,249.18
2024-02-04T22:08:05.262Z,238.95
2024-02-04T22:10:32.893Z,252.75
2024-02-04T22:13:00.718Z,257.42
2024-02-04T22:15:28.389Z,246.73
2024-02-04T22:17:58.179Z,240.98
2024-02-04T22:20:28.230Z,248.82
2024-02-04T22:22:55.917Z,250.07
2024-02-04T22:25:30.595Z,246.75
2024-02-04T22:28:00.014Z,240.40
2024-02-04T22:30:28.390Z,236.38
2024-02-04T22:32:56.189Z,252.38
2024-02-04T22:35:26.105Z,235.48
2024-02-04T22:37:55.111Z,242.23
2024-02-04T22:40:25.347Z,239.02
2024-02-04T22:42:53.288Z,240.13
2024-02-04T22:45:21.219Z,248.73
2024-02-04T22:47:49.299Z,240.55
2024-02-04T22:50:18.853Z,234.95
2024-02-04T22:52:46.585Z,240.80
2024-02-04T22:55:14.300Z,240.20
2024-02-04T22:57:42.148Z,248.57
2024-02-04T23:00:14.462Z,245.85
2024-02-04T23:02:42.641Z,243.63
2024-02-04T23:05:11.060Z,245.70
2024-02-04T23:07:47.549Z,236.88
2024-02-04T23:10:19.984Z,251.88
2024-02-04T23:12:48.938Z,243.98
2024-02-04T23:15:17.836Z,235.95
2024-02-04T23:17:46.226Z,240.38
2024-02-04T23:20:14.022Z,240.23
2024-02-04T23:22:41.657Z,237.25
2024-02-04T23:25:09.885Z,241.65
2024-02-04T23:27:37.642Z,236.50
2024-02-04T23:30:07.103Z,247.77
2024-02-04T23:32:34.847Z,243.68
2024-02-04T23:35:02.655Z,245.65
2024-02-04T23:37:30.459Z,238.88
2024-02-04T23:39:58.199Z,232.80
2024-02-04T23:42:25.857Z,243.95
2024-02-04T23:44:53.556Z,253.50
2024-02-04T23:47:22.275Z,234.10
2024-02-04T23:49:49.995Z,228.80
2024-02-04T23:52:18.359Z,237.60
2024-02-04T23:54:46.535Z,230.52
2024-02-04T23:57:14.282Z,244.75
2024-02-04T23:59:41.850Z,234.45
